Time;durP1;ratioP1;P1;durP2;ratioP2;P2;SDS_P1;SDS_P2;PMS_P1;PMS_P2;Temp;Humidity;BMP_temperature;BMP_pressure;BME280_temperature;BME280_humidity;BME280_pressure;Samples;Min_cycle;Max_cycle;Signal;HPM_P1;HPM_P2
2023/11/14 00:07:35;;;;;;;12.20;7.18;;;;;;;-147.20;100.00;63046.97;31548080;28;20044;-62
2023/11/14 00:22:37;;;;;;;13.05;7.40;;;;;;;-147.20;100.00;63046.97;31549708;28;20037;-62
2023/11/14 00:37:38;;;;;;;11.75;6.63;;;;;;;-147.20;100.00;63046.97;31546861;28;20032;-62
2023/11/14 00:52:38;;;;;;;5.47;3.15;;;;;;;-147.20;100.00;63046.97;31545190;28;20045;-61
2023/11/14 01:07:40;;;;;;;1.95;0.80;;;;;;;-147.20;100.00;63046.97;31544570;28;20032;-62
2023/11/14 01:22:40;;;;;;;1.50;1.13;;;;;;;-147.20;100.00;63046.97;31543581;28;20037;-62
2023/11/14 01:37:41;;;;;;;2.13;0.80;;;;;;;-147.20;100.00;63046.97;31542859;28;20087;-62
2023/11/14 01:52:41;;;;;;;2.95;1.38;;;;;;;-147.20;100.00;63046.97;31538378;28;20531;-63
2023/11/14 02:07:42;;;;;;;10.68;2.00;;;;;;;-147.20;100.00;63046.97;31535848;28;20037;-62
2023/11/14 02:22:43;;;;;;;5.23;1.50;;;;;;;-147.20;100.00;63046.97;31536174;28;20079;-63
2023/11/14 02:37:45;;;;;;;3.22;1.27;;;;;;;-147.20;100.00;63046.97;31534912;28;21228;-62
2023/11/14 02:52:45;;;;;;;5.82;1.38;;;;;;;-147.20;100.00;63046.97;31534594;28;20098;-61
2023/11/14 03:07:47;;;;;;;6.35;1.80;;;;;;;-147.20;100.00;63046.97;31544589;28;20029;-63
2023/11/14 03:22:47;;;;;;;6.32;1.30;;;;;;;-147.20;100.00;63046.97;31553764;28;20478;-61
2023/11/14 03:37:47;;;;;;;3.45;1.55;;;;;;;-147.20;100.00;63046.97;31552031;28;20039;-61
2023/11/14 03:52:48;;;;;;;6.15;1.60;;;;;;;-147.20;100.00;63046.97;31547596;28;20464;-61
2023/11/14 04:07:48;;;;;;;5.53;1.40;;;;;;;-147.20;100.00;63046.97;31548620;28;20493;-63
2023/11/14 04:22:48;;;;;;;8.30;1.55;;;;;;;-147.20;100.00;63046.97;31544793;28;20029;-61
2023/11/14 04:37:50;;;;;;;4.13;1.13;;;;;;;-147.20;100.00;63046.97;31543755;28;20068;-61
2023/11/14 04:52:50;;;;;;;5.25;1.42;;;;;;;-147.20;100.00;63046.97;31542753;28;20477;-63
2023/11/14 05:07:51;;;;;;;5.88;1.27;;;;;;;-147.20;100.00;63046.97;31539131;28;21762;-64
2023/11/14 05:22:51;;;;;;;5.50;1.30;;;;;;;-147.20;100.00;63046.97;31562046;28;20378;-66
2023/11/14 05:37:52;;;;;;;5.25;1.17;;;;;;;-147.20;100.00;63046.97;31632625;28;20047;-63
2023/11/14 05:52:52;;;;;;;3.25;0.90;;;;;;;-147.20;100.00;63046.97;31663176;28;20104;-63
2023/11/14 06:07:53;;;;;;;4.63;1.73;;;;;;;-147.20;100.00;63046.97;31662046;28;20032;-62
2023/11/14 06:22:54;;;;;;;10.15;1.70;;;;;;;-147.20;100.00;63046.97;31661814;28;20031;-63
2023/11/14 06:37:55;;;;;;;5.65;1.95;;;;;;;-147.20;100.00;63046.97;31663648;28;22739;-63
2023/11/14 06:52:56;;;;;;;6.70;1.40;;;;;;;-147.20;100.00;63046.97;31680333;28;20102;-63
2023/11/14 07:07:58;;;;;;;8.90;1.63;;;;;;;-147.20;100.00;63046.97;31678869;28;20036;-63
2023/11/14 07:22:58;;;;;;;3.75;1.55;;;;;;;-147.20;100.00;63046.97;31677145;28;20440;-62
2023/11/14 07:38:01;;;;;;;5.85;2.40;;;;;;;-147.20;100.00;63046.97;31675797;28;20028;-62
2023/11/14 07:53:01;;;;;;;8.50;2.27;;;;;;;-147.20;100.00;63046.97;31674902;28;20579;-62
2023/11/14 08:08:02;;;;;;;5.47;1.40;;;;;;;-147.20;100.00;63046.97;31674028;28;20037;-62
2023/11/14 08:23:03;;;;;;;4.82;1.40;;;;;;;-147.20;100.00;63046.97;31671334;28;20045;-63
2023/11/14 08:38:04;;;;;;;5.30;1.30;;;;;;;-147.20;100.00;63046.97;31669068;28;20039;-63
2023/11/14 08:53:05;;;;;;;5.30;1.42;;;;;;;-147.20;100.00;63046.97;31667184;28;20056;-62
2023/11/14 09:08:05;;;;;;;5.88;1.63;;;;;;;-147.20;100.00;63046.97;31666220;28;20063;-62
2023/11/14 09:23:05;;;;;;;10.80;2.70;;;;;;;-147.20;100.00;63046.97;31666737;28;20068;-62
2023/11/14 09:38:07;;;;;;;7.10;1.70;;;;;;;-147.20;100.00;63046.97;31664205;28;20098;-63
2023/11/14 09:53:08;;;;;;;6.43;1.70;;;;;;;-147.20;100.00;63046.97;31662985;28;20087;-62
2023/11/14 10:08:13;;;;;;;8.02;1.40;;;;;;;-147.20;100.00;63046.97;31662519;28;20107;-62
2023/11/14 10:23:13;;;;;;;5.28;1.45;;;;;;;-147.20;100.00;63046.97;31659023;28;20440;-62
2023/11/14 10:38:25;;;;;;;6.82;1.73;;;;;;;-147.20;100.00;63046.97;31658135;28;20130;-62
2023/11/14 10:53:26;;;;;;;6.57;1.60;;;;;;;-147.20;100.00;63046.97;31657011;28;20084;-63
2023/11/14 11:08:27;;;;;;;6.38;1.58;;;;;;;-147.20;100.00;63046.97;31658724;28;20025;-62
2023/11/14 11:23:27;;;;;;;7.28;1.73;;;;;;;-147.20;100.00;63046.97;31658770;28;20042;-63
2023/11/14 11:38:29;;;;;;;6.18;1.80;;;;;;;-147.20;100.00;63046.97;31674590;28;20036;-63
2023/11/14 11:53:39;;;;;;;4.82;1.60;;;;;;;-147.20;100.00;63046.97;31674022;28;20049;-61
2023/11/14 12:08:39;;;;;;;8.57;1.98;;;;;;;-147.20;100.00;63046.97;31674609;28;20028;-61
2023/11/14 12:23:40;;;;;;;11.50;2.78;;;;;;;-147.20;100.00;63046.97;31669552;28;20063;-64
2023/11/14 12:38:40;;;;;;;5.75;1.92;;;;;;;-147.20;100.00;63046.97;31668639;28;20037;-62
2023/11/14 12:53:41;;;;;;;5.60;2.03;;;;;;;-147.20;100.00;63046.97;31669202;28;20051;-62
2023/11/14 13:08:42;;;;;;;7.53;2.25;;;;;;;-147.20;100.00;63046.97;31666891;28;20203;-62
2023/11/14 13:23:43;;;;;;;7.10;2.00;;;;;;;-147.20;100.00;63046.97;31663569;28;20418;-62
2023/11/14 13:38:44;;;;;;;10.65;1.85;;;;;;;-147.20;100.00;63046.97;31661806;28;20035;-62
2023/11/14 13:53:44;;;;;;;8.85;1.95;;;;;;;-147.20;100.00;63046.97;31660790;28;20044;-63
2023/11/14 14:08:45;;;;;;;11.50;2.17;;;;;;;-147.20;100.00;63046.97;31662521;28;20029;-63
2023/11/14 14:23:46;;;;;;;5.55;1.70;;;;;;;-147.20;100.00;63046.97;31594636;28;20029;-63
2023/11/14 14:38:46;;;;;;;7.03;1.90;;;;;;;-147.20;100.00;63046.97;31489832;28;20033;-64
2023/11/14 14:53:46;;;;;;;8.65;2.55;;;;;;;-147.20;100.00;63046.97;31489113;28;20048;-63
2023/11/14 15:08:47;;;;;;;8.52;2.90;;;;;;;-147.20;100.00;63046.97;31526822;28;20017;-62
2023/11/14 15:23:47;;;;;;;9.10;3.53;;;;;;;-147.20;100.00;63046.97;31459057;28;20045;-62
2023/11/14 15:38:49;;;;;;;14.15;4.65;;;;;;;-147.20;100.00;63046.97;31424147;28;20046;-63
2023/11/14 15:53:52;;;;;;;6.90;3.30;;;;;;;-147.20;100.00;63046.97;31424042;28;20116;-61
2023/11/14 16:08:53;;;;;;;12.10;3.90;;;;;;;-147.20;100.00;63046.97;31420200;28;20026;-62
2023/11/14 16:23:55;;;;;;;11.30;4.05;;;;;;;-147.20;100.00;63046.97;31419679;28;20440;-63
2023/11/14 16:38:56;;;;;;;10.75;3.42;;;;;;;-147.20;100.00;63046.97;31479145;28;20108;-62
2023/11/14 16:53:58;;;;;;;11.98;3.70;;;;;;;-147.20;100.00;63046.97;31540115;28;20124;-63
2023/11/14 17:08:58;;;;;;;13.85;4.38;;;;;;;-147.20;100.00;63046.97;31534603;28;20083;-63
2023/11/14 17:24:02;;;;;;;8.68;3.33;;;;;;;-147.20;100.00;63046.97;31523773;28;23845;-63
2023/11/14 17:39:03;;;;;;;7.57;3.17;;;;;;;-147.20;100.00;63046.97;31504191;28;20040;-62
2023/11/14 17:54:04;;;;;;;9.88;3.00;;;;;;;-147.20;100.00;63046.97;31416414;28;20120;-62
2023/11/14 18:09:04;;;;;;;9.25;3.78;;;;;;;-147.20;100.00;63046.97;31507939;28;20087;-62
2023/11/14 18:24:05;;;;;;;7.75;3.13;;;;;;;-147.20;100.00;63046.97;31532226;28;20063;-62
2023/11/14 18:39:05;;;;;;;11.80;3.45;;;;;;;-147.20;100.00;63046.97;31471564;28;20259;-65
2023/11/14 18:54:06;;;;;;;7.88;3.00;;;;;;;-147.20;100.00;63046.97;31450247;28;20366;-63
2023/11/14 19:09:06;;;;;;;6.47;2.70;;;;;;;-147.20;100.00;63046.97;31571638;28;20040;-62
2023/11/14 19:24:06;;;;;;;7.35;2.45;;;;;;;-147.20;100.00;63046.97;31579044;28;20047;-73
2023/11/14 19:39:08;;;;;;;3.00;2.05;;;;;;;-147.20;100.00;63046.97;31567268;28;20123;-64
2023/11/14 19:54:08;;;;;;;7.75;2.85;;;;;;;-147.20;100.00;63046.97;31601091;28;20051;-64
2023/11/14 20:09:10;;;;;;;7.63;2.90;;;;;;;-147.20;100.00;63046.97;31612863;28;20469;-62
2023/11/14 20:24:13;;;;;;;5.32;3.08;;;;;;;-147.20;100.00;63046.97;31615827;28;20401;-66
2023/11/14 20:39:17;;;;;;;11.88;3.25;;;;;;;-147.20;100.00;63046.97;31588757;28;20127;-62
2023/11/14 20:54:17;;;;;;;5.47;2.20;;;;;;;-147.20;100.00;63046.97;31612572;28;20089;-64
2023/11/14 21:09:18;;;;;;;6.63;1.98;;;;;;;-147.20;100.00;63046.97;31581695;28;20126;-60
2023/11/14 21:24:18;;;;;;;4.93;2.10;;;;;;;-147.20;100.00;63046.97;31541557;28;20032;-64
2023/11/14 21:39:19;;;;;;;8.02;3.33;;;;;;;-147.20;100.00;63046.97;31537718;28;20488;-61
2023/11/14 21:54:19;;;;;;;5.15;2.58;;;;;;;-147.20;100.00;63046.97;31539166;28;20110;-60
2023/11/14 22:09:19;;;;;;;10.75;3.97;;;;;;;-147.20;100.00;63046.97;31536557;28;20040;-63
2023/11/14 22:24:20;;;;;;;9.68;3.60;;;;;;;-147.20;100.00;63046.97;31534405;28;21216;-68
2023/11/14 22:39:20;;;;;;;8.65;3.42;;;;;;;-147.20;100.00;63046.97;31534934;28;21287;-62
2023/11/14 22:54:21;;;;;;;9.27;3.35;;;;;;;-147.20;100.00;63046.97;31535144;28;20102;-60
2023/11/14 23:09:22;;;;;;;5.70;2.35;;;;;;;-147.20;100.00;63046.97;31534724;28;20025;-63
2023/11/14 23:24:23;;;;;;;4.78;2.55;;;;;;;-147.20;100.00;63046.97;31544869;28;20385;-64
2023/11/14 23:39:26;;;;;;;4.80;2.60;;;;;;;-147.20;100.00;63046.97;31555062;28;20104;-65
2023/11/14 23:54:26;;;;;;;5.93;2.55;;;;;;;-147.20;100.00;63046.97;31551820;28;20056;-62
